createdAt,value
2019-05-14T00:00:53.090Z,2.90
2019-05-14T00:03:21.939Z,2.95
2019-05-14T00:05:48.692Z,2.60
2019-05-14T00:08:17.625Z,2.72
2019-05-14T00:10:44.931Z,2.22
2019-05-14T00:13:12.978Z,2.97
2019-05-14T00:15:41.415Z,2.95
2019-05-14T00:18:11.611Z,2.53
2019-05-14T00:20:37.912Z,2.75
2019-05-14T00:23:05.994Z,3.40
2019-05-14T00:25:34.167Z,3.28
2019-05-14T00:28:02.359Z,3.30
2019-05-14T00:30:31.753Z,3.37
2019-05-14T00:32:58.371Z,2.90
2019-05-14T00:35:26.490Z,3.55
2019-05-14T00:37:54.676Z,3.45
2019-05-14T00:40:22.843Z,2.95
2019-05-14T00:42:53.122Z,2.72
2019-05-14T00:45:19.274Z,3.70
2019-05-14T00:47:47.464Z,3.25
2019-05-14T00:50:15.632Z,3.20
2019-05-14T00:52:46.270Z,2.87
2019-05-14T00:55:11.905Z,3.33
2019-05-14T00:57:41.883Z,3.33
2019-05-14T01:00:07.701Z,3.62
2019-05-14T01:02:35.989Z,3.05
2019-05-14T01:05:04.355Z,2.87
2019-05-14T01:07:32.131Z,2.90
2019-05-14T01:10:01.296Z,3.10
2019-05-14T01:12:28.145Z,3.25
2019-05-14T01:15:07.727Z,3.80
2019-05-14T01:17:24.258Z,3.28
2019-05-14T01:19:52.425Z,3.55
2019-05-14T01:22:21.237Z,3.90
2019-05-14T01:24:48.699Z,3.12
2019-05-14T01:27:16.951Z,3.15
2019-05-14T01:29:46.774Z,3.47
2019-05-14T01:32:15.351Z,3.17
2019-05-14T01:34:43.175Z,3.45
2019-05-14T01:37:12.076Z,3.72
2019-05-14T01:39:41.724Z,3.75
2019-05-14T01:42:08.622Z,4.12
2019-05-14T01:44:37.639Z,3.15
2019-05-14T01:47:06.951Z,3.28
2019-05-14T01:49:35.092Z,3.25
2019-05-14T01:52:03.369Z,3.35
2019-05-14T01:54:31.787Z,3.65
2019-05-14T01:57:01.923Z,3.70
2019-05-14T01:59:27.750Z,4.07
2019-05-14T02:01:55.812Z,3.40
2019-05-14T02:04:24.203Z,3.20
2019-05-14T02:06:52.268Z,4.07
2019-05-14T02:09:21.605Z,3.37
2019-05-14T02:11:48.252Z,2.78
2019-05-14T02:14:16.483Z,3.42
2019-05-14T02:16:44.938Z,3.47
2019-05-14T02:19:13.019Z,3.65
2019-05-14T02:21:42.486Z,3.62
2019-05-14T02:24:11.201Z,4.00
2019-05-14T02:26:36.955Z,3.70
2019-05-14T02:29:06.322Z,3.37
2019-05-14T02:31:35.187Z,3.03
2019-05-14T02:34:03.881Z,3.37
2019-05-14T02:36:32.211Z,3.72
2019-05-14T02:39:00.920Z,3.92
2019-05-14T02:41:29.885Z,3.30
2019-05-14T02:43:59.342Z,4.27
2019-05-14T02:46:25.390Z,3.62
2019-05-14T02:48:53.460Z,3.80
2019-05-14T02:51:21.568Z,3.47
2019-05-14T02:53:50.052Z,3.60
2019-05-14T02:56:20.506Z,3.78
2019-05-14T02:58:49.623Z,4.10
2019-05-14T03:01:14.860Z,3.63
2019-05-14T03:03:42.943Z,4.05
2019-05-14T03:06:11.842Z,4.25
2019-05-14T03:08:40.463Z,3.55
2019-05-14T03:11:09.425Z,3.22
2019-05-14T03:13:39.766Z,4.18
2019-05-14T03:16:21.016Z,3.35
2019-05-14T03:18:33.235Z,4.28
2019-05-14T03:21:01.223Z,3.87
2019-05-14T03:23:30.267Z,4.57
2019-05-14T03:26:00.088Z,4.37
2019-05-14T03:28:25.073Z,3.62
2019-05-14T03:30:53.566Z,3.78
2019-05-14T03:33:22.289Z,4.07
2019-05-14T03:35:57.306Z,5.60
2019-05-14T03:38:19.655Z,4.65
2019-05-14T03:40:49.136Z,4.62
2019-05-14T03:43:14.421Z,3.53
2019-05-14T03:45:43.124Z,3.85
2019-05-14T03:48:10.972Z,3.65
2019-05-14T03:50:39.250Z,3.78
2019-05-14T03:53:10.057Z,3.70
2019-05-14T03:55:36.133Z,4.53
2019-05-14T03:58:04.240Z,3.90
2019-05-14T04:00:49.593Z,3.70
2019-05-14T04:03:14.152Z,3.97
2019-05-14T04:05:41.944Z,4.40
2019-05-14T04:08:11.128Z,3.90
2019-05-14T04:10:41.773Z,4.45
2019-05-14T04:13:09.021Z,4.78
2019-05-14T04:15:35.168Z,4.12
2019-05-14T04:18:03.318Z,4.10
2019-05-14T04:20:31.921Z,4.65
2019-05-14T04:23:00.394Z,4.10
2019-05-14T04:25:29.624Z,3.72
2019-05-14T04:27:59.593Z,3.92
2019-05-14T04:30:24.722Z,4.53
2019-05-14T04:32:52.931Z,4.47
2019-05-14T04:35:20.946Z,4.00
2019-05-14T04:37:49.704Z,3.30
2019-05-14T04:40:18.982Z,4.70
2019-05-14T04:42:45.047Z,4.37
2019-05-14T04:45:13.237Z,4.35
2019-05-14T04:47:42.609Z,4.97
2019-05-14T04:50:11.617Z,3.80
2019-05-14T04:52:42.383Z,3.80
2019-05-14T04:55:10.249Z,4.40
2019-05-14T04:57:39.400Z,4.55
2019-05-14T05:00:07.063Z,4.45
2019-05-14T05:02:35.264Z,4.43
2019-05-14T05:05:03.443Z,4.32
2019-05-14T05:07:31.706Z,4.43
2019-05-14T05:09:59.914Z,4.32
2019-05-14T05:12:29.660Z,3.92
2019-05-14T05:14:58.649Z,4.50
2019-05-14T05:17:40.162Z,4.40
2019-05-14T05:19:53.403Z,4.65
2019-05-14T05:22:21.854Z,4.78
2019-05-14T05:24:49.722Z,4.82
2019-05-14T05:27:18.484Z,3.72
2019-05-14T05:29:48.371Z,3.87
2019-05-14T05:32:14.035Z,3.60
2019-05-14T05:34:42.108Z,4.20
2019-05-14T05:37:10.191Z,4.10
2019-05-14T05:39:38.811Z,4.18
2019-05-14T05:42:08.979Z,4.07
2019-05-14T05:44:35.021Z,3.70
2019-05-14T05:47:03.101Z,4.30
2019-05-14T05:49:31.283Z,4.57
2019-05-14T05:51:59.393Z,3.72
2019-05-14T05:54:29.209Z,4.10
2019-05-14T05:56:55.392Z,4.10
2019-05-14T05:59:23.547Z,3.70
2019-05-14T06:01:54.290Z,4.28
2019-05-14T06:04:19.701Z,3.58
2019-05-14T06:06:48.362Z,4.20
2019-05-14T06:09:18.074Z,4.00
2019-05-14T06:11:44.768Z,3.37
2019-05-14T06:14:13.354Z,3.37
2019-05-14T06:16:41.481Z,3.45
2019-05-14T06:19:09.666Z,3.30
2019-05-14T06:21:39.836Z,3.83
2019-05-14T06:24:08.329Z,3.35
2019-05-14T06:26:34.064Z,3.72
2019-05-14T06:29:02.185Z,3.67
2019-05-14T06:31:30.001Z,3.72
2019-05-14T06:33:59.097Z,3.62
2019-05-14T06:36:28.906Z,4.25
2019-05-14T06:38:55.055Z,3.62
2019-05-14T06:41:23.251Z,3.67
2019-05-14T06:43:51.172Z,3.80
2019-05-14T06:46:19.707Z,3.05
2019-05-14T06:48:48.549Z,3.10
2019-05-14T06:51:15.637Z,3.35
2019-05-14T06:53:43.782Z,3.33
2019-05-14T06:56:11.571Z,1.70
2019-05-14T06:58:39.917Z,1.60
2019-05-14T07:01:09.529Z,1.80
2019-05-14T07:03:38.179Z,2.42
2019-05-14T07:06:04.616Z,1.85
2019-05-14T07:08:32.824Z,2.17
2019-05-14T07:11:00.989Z,1.95
2019-05-14T07:13:29.559Z,2.30
2019-05-14T07:15:58.459Z,1.75
2019-05-14T07:18:28.114Z,4.87
2019-05-14T07:20:53.931Z,2.40
2019-05-14T07:23:22.062Z,2.12
2019-05-14T07:25:50.140Z,3.03
2019-05-14T07:28:19.274Z,2.87
2019-05-14T07:30:48.559Z,1.80
2019-05-14T07:33:14.450Z,2.40
2019-05-14T07:35:42.560Z,2.40
2019-05-14T07:38:10.681Z,2.40
2019-05-14T07:40:39.284Z,2.37
2019-05-14T07:43:09.005Z,2.40
2019-05-14T07:45:35.215Z,2.20
2019-05-14T07:48:03.310Z,2.87
2019-05-14T07:50:31.425Z,1.98
2019-05-14T07:53:02.763Z,2.20
2019-05-14T07:55:28.828Z,2.85
2019-05-14T07:57:58.580Z,1.40
2019-05-14T08:00:24.196Z,1.65
2019-05-14T08:02:52.363Z,5.20
2019-05-14T08:05:20.693Z,1.92
2019-05-14T08:07:48.875Z,1.80
2019-05-14T08:10:18.604Z,1.60
2019-05-14T08:12:45.076Z,1.95
2019-05-14T08:15:18.943Z,1.90
2019-05-14T08:17:41.377Z,2.10
2019-05-14T08:20:09.909Z,2.25
2019-05-14T08:22:38.396Z,2.42
2019-05-14T08:25:08.368Z,1.65
2019-05-14T08:27:34.587Z,1.77
2019-05-14T08:30:02.685Z,1.77
2019-05-14T08:32:30.517Z,2.00
2019-05-14T08:34:58.616Z,1.90
2019-05-14T08:37:27.972Z,1.98
2019-05-14T08:39:58.662Z,2.20
2019-05-14T08:42:24.358Z,2.20
2019-05-14T08:44:52.171Z,1.77
2019-05-14T08:47:20.294Z,2.42
2019-05-14T08:49:50.809Z,1.60
2019-05-14T08:52:19.177Z,2.35
2019-05-14T08:54:45.527Z,2.17
2019-05-14T08:57:13.689Z,1.95
2019-05-14T08:59:41.488Z,2.60
2019-05-14T09:02:10.772Z,2.72
2019-05-14T09:04:43.032Z,2.60
2019-05-14T09:07:05.780Z,2.20
2019-05-14T09:09:33.878Z,1.83
2019-05-14T09:12:02.084Z,1.80
2019-05-14T09:14:30.310Z,1.45
2019-05-14T09:16:59.888Z,2.10
2019-05-14T09:19:28.721Z,2.15
2019-05-14T09:21:58.607Z,1.90
2019-05-14T09:24:24.310Z,1.92
2019-05-14T09:26:52.436Z,2.00
2019-05-14T09:29:25.910Z,2.50
2019-05-14T09:31:49.427Z,2.80
2019-05-14T09:34:19.440Z,1.52
2019-05-14T09:36:45.024Z,2.05
2019-05-14T09:39:13.278Z,2.10
2019-05-14T09:41:41.674Z,2.20
2019-05-14T09:44:12.531Z,2.10
2019-05-14T09:46:41.198Z,1.98
2019-05-14T09:49:09.400Z,2.50
2019-05-14T09:51:38.418Z,2.33
2019-05-14T09:54:05.574Z,2.17
2019-05-14T09:56:33.869Z,2.30
2019-05-14T09:59:01.940Z,2.20
2019-05-14T10:01:30.039Z,2.17
2019-05-14T10:03:59.320Z,2.58
2019-05-14T10:06:28.262Z,3.45
2019-05-14T10:08:54.331Z,2.08
2019-05-14T10:11:22.693Z,1.95
2019-05-14T10:13:50.756Z,2.12
2019-05-14T10:16:19.193Z,2.03
2019-05-14T10:18:49.050Z,2.25
2019-05-14T10:21:15.323Z,1.80
2019-05-14T10:23:43.272Z,2.25
2019-05-14T10:26:11.692Z,2.05
2019-05-14T10:28:43.334Z,1.70
2019-05-14T10:31:09.428Z,1.98
2019-05-14T10:33:36.254Z,2.03
2019-05-14T10:36:04.341Z,2.62
2019-05-14T10:38:32.215Z,2.12
2019-05-14T10:41:00.081Z,2.10
2019-05-14T10:43:28.862Z,2.08
2019-05-14T10:45:57.896Z,2.10
2019-05-14T10:48:24.125Z,1.95
2019-05-14T10:51:01.981Z,1.70
2019-05-14T10:53:20.543Z,1.85
2019-05-14T10:55:48.625Z,1.90
2019-05-14T10:58:19.590Z,2.45
2019-05-14T11:00:44.475Z,3.95
2019-05-14T11:03:12.518Z,4.75
2019-05-14T11:05:41.498Z,4.80
2019-05-14T11:08:11.991Z,4.70
2019-05-14T11:10:41.901Z,2.75
2019-05-14T11:13:05.346Z,2.70
2019-05-14T11:15:33.079Z,2.50
2019-05-14T11:18:01.235Z,1.90
2019-05-14T11:20:31.097Z,2.10
2019-05-14T11:22:58.453Z,2.40
2019-05-14T11:25:28.664Z,2.17
2019-05-14T11:27:54.481Z,2.33
2019-05-14T11:30:22.630Z,4.43
2019-05-14T11:32:51.220Z,3.35
2019-05-14T11:35:19.424Z,4.30
2019-05-14T11:37:48.060Z,5.43
2019-05-14T11:40:15.448Z,5.10
2019-05-14T11:42:43.606Z,4.07
2019-05-14T11:45:11.392Z,4.15
2019-05-14T11:47:39.884Z,4.75
2019-05-14T11:50:09.874Z,2.83
2019-05-14T11:52:38.663Z,3.22
2019-05-14T11:55:04.759Z,2.78
2019-05-14T11:57:32.952Z,2.42
2019-05-14T12:00:00.523Z,2.55
2019-05-14T12:02:29.098Z,3.00
2019-05-14T12:04:57.053Z,3.47
2019-05-14T12:07:25.260Z,4.00
2019-05-14T12:09:53.604Z,3.22
2019-05-14T12:12:21.668Z,3.20
2019-05-14T12:14:49.997Z,2.83
2019-05-14T12:17:18.232Z,3.28
2019-05-14T12:19:48.312Z,2.92
2019-05-14T12:22:14.352Z,3.22
2019-05-14T12:24:42.042Z,3.83
2019-05-14T12:27:10.126Z,3.45
2019-05-14T12:29:39.756Z,3.15
2019-05-14T12:32:05.953Z,3.30
2019-05-14T12:34:34.618Z,3.35
2019-05-14T12:37:02.508Z,3.25
2019-05-14T12:39:30.873Z,3.08
2019-05-14T12:41:58.948Z,3.30
2019-05-14T12:44:28.997Z,2.90
2019-05-14T12:46:54.706Z,3.70
2019-05-14T12:49:22.943Z,3.72
2019-05-14T12:51:51.050Z,3.45
2019-05-14T12:54:20.058Z,3.85
2019-05-14T12:56:49.394Z,3.65
2019-05-14T12:59:14.934Z,2.87
2019-05-14T13:01:43.029Z,3.47
2019-05-14T13:04:11.271Z,3.40
2019-05-14T13:06:40.140Z,3.53
2019-05-14T13:09:09.392Z,2.87
2019-05-14T13:11:41.221Z,2.97
2019-05-14T13:14:04.223Z,3.05
2019-05-14T13:16:32.698Z,2.67
2019-05-14T13:19:00.746Z,3.05
2019-05-14T13:21:29.079Z,2.72
2019-05-14T13:23:57.605Z,3.65
2019-05-14T13:26:25.683Z,3.87
2019-05-14T13:28:54.364Z,3.80
2019-05-14T13:31:22.540Z,3.72
2019-05-14T13:33:50.720Z,3.55
2019-05-14T13:36:20.273Z,3.72
2019-05-14T13:38:49.073Z,3.03
2019-05-14T13:41:15.241Z,3.65
2019-05-14T13:43:43.286Z,2.92
2019-05-14T13:46:15.055Z,3.10
2019-05-14T13:48:43.206Z,2.37
2019-05-14T13:51:09.007Z,3.17
2019-05-14T13:53:35.741Z,3.37
2019-05-14T13:56:03.971Z,3.00
2019-05-14T13:58:31.733Z,3.00
2019-05-14T14:00:59.728Z,2.75
2019-05-14T14:03:29.254Z,3.05
2019-05-14T14:05:59.286Z,2.65
2019-05-14T14:08:24.931Z,3.40
2019-05-14T14:10:54.342Z,3.25
2019-05-14T14:13:21.092Z,2.90
2019-05-14T14:15:49.157Z,2.70
2019-05-14T14:18:20.659Z,3.22
2019-05-14T14:20:45.098Z,3.10
2019-05-14T14:23:21.934Z,3.05
2019-05-14T14:25:41.740Z,2.17
2019-05-14T14:28:10.204Z,3.17
2019-05-14T14:30:39.467Z,2.65
2019-05-14T14:33:06.597Z,3.20
2019-05-14T14:35:34.974Z,3.10
2019-05-14T14:38:03.166Z,2.55
2019-05-14T14:40:31.310Z,2.70
2019-05-14T14:42:59.689Z,2.72
2019-05-14T14:45:29.296Z,2.78
2019-05-14T14:47:55.983Z,3.00
2019-05-14T14:50:24.127Z,2.95
2019-05-14T14:52:52.317Z,2.65
2019-05-14T14:55:20.429Z,2.33
2019-05-14T14:57:54.133Z,2.42
2019-05-14T15:00:19.369Z,2.30
2019-05-14T15:02:46.027Z,2.33
2019-05-14T15:05:14.733Z,2.67
2019-05-14T15:07:42.344Z,2.50
2019-05-14T15:10:10.414Z,1.98
2019-05-14T15:12:40.095Z,2.20
2019-05-14T15:15:07.090Z,2.80
2019-05-14T15:17:35.282Z,2.08
2019-05-14T15:20:03.150Z,2.28
2019-05-14T15:22:31.522Z,2.95
2019-05-14T15:24:59.551Z,2.40
2019-05-14T15:27:28.206Z,2.50
2019-05-14T15:29:55.922Z,3.10
2019-05-14T15:32:23.980Z,2.47
2019-05-14T15:34:52.041Z,2.53
2019-05-14T15:37:19.910Z,2.60
2019-05-14T15:39:49.047Z,2.42
2019-05-14T15:42:15.867Z,2.62
2019-05-14T15:44:52.080Z,2.72
2019-05-14T15:47:12.897Z,2.80
2019-05-14T15:49:41.009Z,2.92
2019-05-14T15:52:09.181Z,2.95
2019-05-14T15:54:46.311Z,2.20
2019-05-14T15:57:05.102Z,3.10
2019-05-14T15:59:33.276Z,2.42
2019-05-14T16:02:01.346Z,2.50
2019-05-14T16:04:29.615Z,2.25
2019-05-14T16:06:58.655Z,1.52
2019-05-14T16:09:28.732Z,2.37
2019-05-14T16:11:54.119Z,2.65
2019-05-14T16:14:22.222Z,2.45
2019-05-14T16:16:50.290Z,2.40
2019-05-14T16:19:19.124Z,2.92
2019-05-14T16:21:46.570Z,2.85
2019-05-14T16:24:14.739Z,2.40
2019-05-14T16:26:42.934Z,2.53
2019-05-14T16:29:12.074Z,2.62
2019-05-14T16:31:43.373Z,2.90
2019-05-14T16:34:09.709Z,2.37
2019-05-14T16:36:40.901Z,2.42
2019-05-14T16:39:04.681Z,2.80
2019-05-14T16:41:32.719Z,2.80
2019-05-14T16:44:01.023Z,2.47
2019-05-14T16:46:29.095Z,2.30
2019-05-14T16:48:58.190Z,2.28
2019-05-14T16:51:25.244Z,2.47
2019-05-14T16:53:53.077Z,2.35
2019-05-14T16:56:21.157Z,2.47
2019-05-14T16:58:49.353Z,2.62
2019-05-14T17:01:19.316Z,2.42
2019-05-14T17:03:45.381Z,2.03
2019-05-14T17:06:13.489Z,2.58
2019-05-14T17:08:41.663Z,2.67
2019-05-14T17:11:10.366Z,2.50
2019-05-14T17:13:39.080Z,2.58
2019-05-14T17:16:08.616Z,2.42
2019-05-14T17:18:35.256Z,2.30
2019-05-14T17:21:03.332Z,2.42
2019-05-14T17:23:31.394Z,2.60
2019-05-14T17:25:59.482Z,2.83
2019-05-14T17:28:28.593Z,2.40
2019-05-14T17:30:55.395Z,2.65
2019-05-14T17:33:23.466Z,2.45
2019-05-14T17:35:51.837Z,2.50
2019-05-14T17:38:20.022Z,2.45
2019-05-14T17:40:48.838Z,2.62
2019-05-14T17:43:19.035Z,2.90
2019-05-14T17:45:44.644Z,2.35
2019-05-14T17:48:12.529Z,3.15
2019-05-14T17:50:40.383Z,2.30
2019-05-14T17:53:09.729Z,2.70
2019-05-14T17:55:46.499Z,2.30
2019-05-14T17:58:05.225Z,2.58
2019-05-14T18:00:33.303Z,2.55
2019-05-14T18:03:01.470Z,2.65
2019-05-14T18:05:29.766Z,2.60
2019-05-14T18:07:59.430Z,2.70
2019-05-14T18:10:28.308Z,3.22
2019-05-14T18:12:54.145Z,2.65
2019-05-14T18:15:22.251Z,2.62
2019-05-14T18:17:50.065Z,2.90
2019-05-14T18:20:18.259Z,2.75
2019-05-14T18:22:48.552Z,3.30
2019-05-14T18:25:14.168Z,2.70
2019-05-14T18:27:42.902Z,2.37
2019-05-14T18:30:10.699Z,3.28
2019-05-14T18:32:39.524Z,2.70
2019-05-14T18:35:07.931Z,2.72
2019-05-14T18:37:36.008Z,2.62
2019-05-14T18:40:04.264Z,2.60
2019-05-14T18:42:32.349Z,3.08
2019-05-14T18:45:00.192Z,2.92
2019-05-14T18:47:29.098Z,3.53
2019-05-14T18:49:56.248Z,2.97
2019-05-14T18:52:24.415Z,3.03
2019-05-14T18:54:51.873Z,3.42
2019-05-14T18:57:19.950Z,3.85
2019-05-14T18:59:49.356Z,3.78
2019-05-14T19:02:18.452Z,4.15
2019-05-14T19:04:44.785Z,4.87
2019-05-14T19:07:15.555Z,4.68
2019-05-14T19:09:41.009Z,3.87
2019-05-14T19:12:09.183Z,3.53
2019-05-14T19:14:39.122Z,4.53
2019-05-14T19:17:05.132Z,3.67
2019-05-14T19:19:33.220Z,3.78
2019-05-14T19:22:01.996Z,3.58
2019-05-14T19:24:30.161Z,3.33
2019-05-14T19:26:59.611Z,4.50
2019-05-14T19:29:28.019Z,4.82
2019-05-14T19:31:54.180Z,3.17
2019-05-14T19:34:23.035Z,3.37
2019-05-14T19:36:50.827Z,3.12
2019-05-14T19:39:18.919Z,2.85
2019-05-14T19:41:48.422Z,3.87
2019-05-14T19:44:15.334Z,3.60
2019-05-14T19:46:43.420Z,3.37
2019-05-14T19:49:11.525Z,3.50
2019-05-14T19:51:39.774Z,3.08
2019-05-14T19:54:08.252Z,3.47
2019-05-14T19:56:51.354Z,3.35
2019-05-14T19:59:04.509Z,3.15
2019-05-14T20:01:32.654Z,2.97
2019-05-14T20:04:00.819Z,3.15
2019-05-14T20:06:29.597Z,3.05
2019-05-14T20:08:58.715Z,3.05
2019-05-14T20:11:25.928Z,3.15
2019-05-14T20:13:53.824Z,3.40
2019-05-14T20:16:22.038Z,2.90
2019-05-14T20:18:50.207Z,2.90
2019-05-14T20:21:18.374Z,3.70
2019-05-14T20:23:48.080Z,2.70
2019-05-14T20:26:14.826Z,3.22
2019-05-14T20:28:42.872Z,2.90
2019-05-14T20:31:10.888Z,2.95
2019-05-14T20:33:39.218Z,3.80
2019-05-14T20:36:08.286Z,2.50
2019-05-14T20:38:35.485Z,3.15
2019-05-14T20:41:03.660Z,3.53
2019-05-14T20:43:32.184Z,3.28
2019-05-14T20:46:00.301Z,3.05
2019-05-14T20:48:28.425Z,3.40
2019-05-14T20:50:58.441Z,3.80
2019-05-14T20:53:24.718Z,3.10
2019-05-14T20:55:52.941Z,3.28
2019-05-14T20:58:21.114Z,3.45
2019-05-14T21:00:49.384Z,3.47
2019-05-14T21:03:18.761Z,2.95
2019-05-14T21:05:45.277Z,2.92
2019-05-14T21:08:13.855Z,3.12
2019-05-14T21:10:41.901Z,3.47
2019-05-14T21:13:10.173Z,3.65
2019-05-14T21:15:39.147Z,4.00
2019-05-14T21:18:08.362Z,3.35
2019-05-14T21:20:35.356Z,3.60
2019-05-14T21:23:03.213Z,3.67
2019-05-14T21:25:31.401Z,3.83
2019-05-14T21:27:59.582Z,3.75
2019-05-14T21:30:29.536Z,3.75
2019-05-14T21:32:56.252Z,3.15
2019-05-14T21:35:25.033Z,3.47
2019-05-14T21:37:54.009Z,3.28
2019-05-14T21:40:22.266Z,3.92
2019-05-14T21:42:50.463Z,3.28
2019-05-14T21:45:18.684Z,3.37
2019-05-14T21:47:48.222Z,3.53
2019-05-14T21:50:18.126Z,2.72
2019-05-14T21:52:44.896Z,3.17
2019-05-14T21:55:13.113Z,2.92
2019-05-14T21:57:53.466Z,3.25
2019-05-14T22:00:10.350Z,3.47
2019-05-14T22:02:38.809Z,2.87
2019-05-14T22:05:09.373Z,3.12
2019-05-14T22:07:35.890Z,3.72
2019-05-14T22:10:04.118Z,3.17
2019-05-14T22:12:32.456Z,3.67
2019-05-14T22:15:00.663Z,3.37
2019-05-14T22:17:29.012Z,3.60
2019-05-14T22:19:58.390Z,3.40
2019-05-14T22:22:25.253Z,3.50
2019-05-14T22:24:53.474Z,4.20
2019-05-14T22:27:21.681Z,4.10
2019-05-14T22:29:49.787Z,3.92
2019-05-14T22:32:19.102Z,3.35
2019-05-14T22:34:49.066Z,3.83
2019-05-14T22:37:15.077Z,3.80
2019-05-14T22:39:44.086Z,4.25
2019-05-14T22:42:12.277Z,3.97
2019-05-14T22:44:40.565Z,3.40
2019-05-14T22:47:09.244Z,4.25
2019-05-14T22:49:37.504Z,3.58
2019-05-14T22:52:08.100Z,3.40
2019-05-14T22:54:33.807Z,4.37
2019-05-14T22:57:02.001Z,3.83
2019-05-14T22:59:30.251Z,4.00
2019-05-14T23:01:59.189Z,4.05
2019-05-14T23:04:28.957Z,3.97
2019-05-14T23:06:55.750Z,3.87
2019-05-14T23:09:24.208Z,3.80
2019-05-14T23:11:52.458Z,3.67
2019-05-14T23:14:20.743Z,3.85
2019-05-14T23:16:49.268Z,3.55
2019-05-14T23:19:18.695Z,4.18
2019-05-14T23:21:45.248Z,4.10
2019-05-14T23:24:13.465Z,3.92
2019-05-14T23:26:41.622Z,3.95
2019-05-14T23:29:09.528Z,3.78
2019-05-14T23:31:38.472Z,4.55
2019-05-14T23:34:05.928Z,4.62
2019-05-14T23:36:34.141Z,3.72
2019-05-14T23:39:02.228Z,4.15
2019-05-14T23:41:30.585Z,4.07
2019-05-14T23:43:58.794Z,5.40
2019-05-14T23:46:29.025Z,5.67
2019-05-14T23:48:55.794Z,4.93
2019-05-14T23:51:24.027Z,4.75
2019-05-14T23:53:52.258Z,5.95
2019-05-14T23:56:20.443Z,4.60
2019-05-14T23:58:55.860Z,5.20
